Time;durP1;ratioP1;P1;durP2;ratioP2;P2;SDS_P1;SDS_P2;PMS_P1;PMS_P2;Temp;Humidity;BMP_temperature;BMP_pressure;BME280_temperature;BME280_humidity;BME280_pressure;Samples;Min_cycle;Max_cycle;Signal;HPM_P1;HPM_P2
2023/08/07 00:01:17;;;;;;;5.75;4.25;;;;;;;20.19;70.80;98599.00;6283702;22;20003;-87
2023/08/07 00:03:43;;;;;;;5.65;3.80;;;;;;;20.14;70.26;98590.25;6258784;22;20053;-86
2023/08/07 00:06:09;;;;;;;6.43;4.20;;;;;;;20.13;71.19;98605.06;6282842;22;20002;-86
2023/08/07 00:08:36;;;;;;;4.97;4.20;;;;;;;20.14;70.59;98609.38;6258347;22;20000;-86
2023/08/07 00:11:08;;;;;;;5.00;4.18;;;;;;;20.11;69.94;98615.56;6259562;22;19995;-86
2023/08/07 00:13:33;;;;;;;7.70;4.10;;;;;;;20.05;69.52;98619.72;6283613;22;19995;-86
2023/08/07 00:15:58;;;;;;;5.88;3.80;;;;;;;20.02;68.48;98618.44;6257664;22;20011;-86
2023/08/07 00:18:24;;;;;;;5.50;3.80;;;;;;;19.94;68.99;98622.94;6283579;22;20026;-86
2023/08/07 00:20:49;;;;;;;6.85;3.80;;;;;;;19.95;69.71;98624.53;6257770;22;20002;-86
2023/08/07 00:23:15;;;;;;;6.63;4.00;;;;;;;19.85;70.51;98618.78;6257384;22;20011;-86
2023/08/07 00:25:40;;;;;;;6.68;3.58;;;;;;;19.84;70.88;98625.38;6308128;22;20003;-86
2023/08/07 00:28:06;;;;;;;4.65;4.07;;;;;;;19.86;71.79;98634.00;6257105;22;19996;-86
2023/08/07 00:30:33;;;;;;;4.63;3.72;;;;;;;19.87;71.53;98641.06;6283205;22;20022;-86
2023/08/07 00:32:58;;;;;;;4.60;3.88;;;;;;;19.81;70.47;98640.50;6282780;22;19995;-86
2023/08/07 00:35:24;;;;;;;4.53;3.45;;;;;;;19.72;70.00;98629.75;6256979;22;20003;-86
2023/08/07 00:37:49;;;;;;;4.63;3.03;;;;;;;19.79;68.82;98640.06;6257458;22;19999;-86
2023/08/07 00:40:16;;;;;;;4.57;3.35;;;;;;;19.87;69.14;98639.13;6256631;22;20003;-86
2023/08/07 00:42:42;;;;;;;4.32;3.53;;;;;;;19.85;70.07;98641.41;6284064;22;19995;-86
2023/08/07 00:45:08;;;;;;;4.75;3.50;;;;;;;19.85;71.44;98641.41;6257379;22;19999;-86
2023/08/07 00:47:33;;;;;;;4.93;3.30;;;;;;;19.81;69.09;98637.00;6256825;22;20002;-86
2023/08/07 00:49:59;;;;;;;4.22;3.00;;;;;;;19.79;68.14;98642.81;6283559;22;20007;-84
2023/08/07 00:52:24;;;;;;;5.75;3.15;;;;;;;19.74;69.43;98634.88;6256604;22;20453;-86
2023/08/07 00:54:50;;;;;;;6.05;3.30;;;;;;;19.80;69.21;98647.13;6256916;22;20010;-86
2023/08/07 00:57:15;;;;;;;4.00;3.03;;;;;;;19.80;68.73;98644.41;6282521;22;20384;-86
2023/08/07 00:59:41;;;;;;;4.53;3.47;;;;;;;19.70;69.15;98642.13;6257682;22;20418;-86
2023/08/07 01:02:07;;;;;;;4.07;2.80;;;;;;;19.70;68.86;98655.78;6282246;22;19995;-86
2023/08/07 01:04:32;;;;;;;5.65;3.08;;;;;;;19.64;67.60;98651.72;6256928;22;20034;-86
2023/08/07 01:06:58;;;;;;;8.07;3.00;;;;;;;19.66;66.99;98652.94;6256556;22;20338;-86
2023/08/07 01:09:23;;;;;;;3.55;2.80;;;;;;;19.60;68.09;98654.34;6282552;22;19999;-86
2023/08/07 01:11:50;;;;;;;4.07;2.60;;;;;;;19.61;67.29;98669.59;6282284;22;19999;-86
2023/08/07 01:14:29;;;;;;;5.75;3.13;;;;;;;19.62;68.77;98665.72;6257037;22;19991;-86
2023/08/07 01:17:02;;;;;;;3.40;2.40;;;;;;;19.57;68.35;98664.03;6258747;22;20026;-86
2023/08/07 01:19:28;;;;;;;5.30;2.63;;;;;;;19.48;68.15;98662.56;6257265;22;20011;-87
2023/08/07 01:22:09;;;;;;;3.30;2.58;;;;;;;19.55;67.73;98673.72;6257773;22;20041;-86
2023/08/07 01:24:35;;;;;;;4.70;2.80;;;;;;;19.56;69.08;98683.47;6263956;22;20007;-83
2023/08/07 01:27:18;;;;;;;3.75;2.72;;;;;;;19.49;68.51;98675.88;6287549;22;20029;-86
2023/08/07 01:29:51;;;;;;;8.57;3.30;;;;;;;19.52;70.92;98686.09;6290920;22;20344;-86
2023/08/07 01:32:24;;;;;;;6.55;3.60;;;;;;;19.31;71.88;98683.53;6287973;22;19995;-86
2023/08/07 01:34:49;;;;;;;5.95;3.20;;;;;;;19.23;70.45;98680.91;6263115;22;19999;-86
2023/08/07 01:37:15;;;;;;;3.25;2.63;;;;;;;19.33;69.02;98691.38;6288111;22;20001;-86
2023/08/07 01:39:40;;;;;;;7.47;2.60;;;;;;;19.31;68.60;98686.25;6261975;22;20006;-86
2023/08/07 01:42:09;;;;;;;3.65;2.67;;;;;;;19.27;69.28;98684.56;6261795;22;20010;-86
2023/08/07 01:44:36;;;;;;;7.03;2.40;;;;;;;19.24;68.90;98674.34;6288311;22;20002;-86
2023/08/07 01:47:02;;;;;;;2.72;2.35;;;;;;;19.31;68.12;98688.19;6288345;22;20439;-87
2023/08/07 01:49:29;;;;;;;2.85;2.35;;;;;;;19.24;67.93;98688.78;6287663;22;20003;-86
2023/08/07 01:52:27;;;;;;;3.42;2.40;;;;;;;19.32;67.44;98696.03;6262423;22;20030;-86
2023/08/07 01:54:52;;;;;;;3.40;2.45;;;;;;;19.17;67.32;98683.06;6312921;22;20017;-86
2023/08/07 01:57:18;;;;;;;4.82;2.30;;;;;;;19.15;66.68;98680.72;6261815;22;20003;-86
2023/08/07 01:59:44;;;;;;;3.38;2.50;;;;;;;19.16;67.77;98686.97;6287209;22;20003;-86
2023/08/07 02:02:10;;;;;;;6.55;2.53;;;;;;;19.15;67.39;98690.81;6288566;22;20022;-85
2023/08/07 02:04:35;;;;;;;5.60;2.40;;;;;;;19.15;65.96;98696.28;6262308;22;19998;-86
2023/08/07 02:07:01;;;;;;;3.25;2.50;;;;;;;19.18;65.50;98696.38;6261040;22;19995;-86
2023/08/07 02:09:26;;;;;;;3.13;2.38;;;;;;;19.15;66.78;98705.28;6261736;22;20460;-86
2023/08/07 02:11:52;;;;;;;2.85;2.30;;;;;;;19.22;66.12;98707.44;6287152;22;20006;-86
2023/08/07 02:14:17;;;;;;;2.75;2.33;;;;;;;19.24;64.63;98715.28;6262077;22;19999;-86
2023/08/07 02:16:43;;;;;;;2.42;2.10;;;;;;;19.14;65.29;98717.31;6287999;22;19991;-86
2023/08/07 02:19:08;;;;;;;2.80;2.38;;;;;;;19.18;64.88;98709.25;6287804;22;20010;-86
2023/08/07 02:21:34;;;;;;;6.72;5.15;;;;;;;19.07;66.33;98710.81;6287735;22;20020;-86
2023/08/07 02:23:59;;;;;;;4.80;2.60;;;;;;;19.05;65.45;98730.28;6261246;22;20014;-86
2023/08/07 02:26:25;;;;;;;3.03;2.53;;;;;;;18.98;65.88;98719.91;6261928;22;20037;-86
2023/08/07 02:28:50;;;;;;;3.75;2.58;;;;;;;18.90;65.85;98714.56;6261738;22;20007;-86
2023/08/07 02:31:16;;;;;;;2.80;2.20;;;;;;;18.89;65.85;98721.97;6286957;22;20033;-86
2023/08/07 02:33:41;;;;;;;3.60;2.50;;;;;;;18.81;66.09;98717.41;6261463;22;20022;-86
2023/08/07 02:36:07;;;;;;;3.38;2.70;;;;;;;18.81;66.67;98724.81;6286595;22;20003;-86
2023/08/07 02:38:32;;;;;;;7.95;3.13;;;;;;;18.79;66.96;98725.13;6261454;22;20003;-85
2023/08/07 02:40:58;;;;;;;3.97;2.90;;;;;;;18.83;67.14;98723.31;6286219;22;19995;-86
2023/08/07 02:43:23;;;;;;;2.92;2.58;;;;;;;18.73;66.96;98718.28;6313667;22;20017;-86
2023/08/07 02:45:49;;;;;;;3.60;2.88;;;;;;;18.69;67.34;98718.16;6261565;22;20002;-86
2023/08/07 02:48:14;;;;;;;3.08;2.50;;;;;;;18.77;67.26;98730.91;6260975;22;20001;-86
2023/08/07 02:50:40;;;;;;;5.63;2.90;;;;;;;18.76;67.15;98729.31;6261260;22;20038;-86
2023/08/07 02:53:05;;;;;;;5.57;2.85;;;;;;;18.76;67.18;98731.25;6286875;22;19995;-86
2023/08/07 02:55:31;;;;;;;4.05;3.22;;;;;;;18.68;67.72;98738.38;6261842;22;20003;-86
2023/08/07 02:57:57;;;;;;;5.53;2.92;;;;;;;18.72;67.96;98746.69;6286572;22;20075;-86
2023/08/07 03:00:22;;;;;;;3.47;2.70;;;;;;;18.54;68.98;98740.63;6312959;22;19999;-86
2023/08/07 03:02:48;;;;;;;4.30;3.17;;;;;;;18.55;67.93;98744.94;6286850;22;19998;-86
2023/08/07 03:05:13;;;;;;;4.00;2.88;;;;;;;18.57;67.47;98734.50;6286429;22;20002;-86
2023/08/07 03:07:39;;;;;;;4.20;3.10;;;;;;;18.55;67.92;98736.75;6261240;22;20056;-86
2023/08/07 03:10:06;;;;;;;3.38;3.03;;;;;;;18.53;67.29;98739.84;6261344;22;19994;-86
2023/08/07 03:12:32;;;;;;;4.47;3.00;;;;;;;18.47;67.71;98741.19;6261346;22;20056;-88
2023/08/07 03:14:58;;;;;;;3.88;3.00;;;;;;;18.35;66.36;98733.75;6261472;22;20002;-86
2023/08/07 03:17:24;;;;;;;3.42;2.97;;;;;;;18.37;66.60;98720.59;6260697;22;20036;-86
2023/08/07 03:19:50;;;;;;;3.80;3.38;;;;;;;18.43;66.73;98736.72;6312588;22;20116;-86
2023/08/07 03:22:15;;;;;;;4.03;3.03;;;;;;;18.47;68.02;98738.47;6261944;22;19995;-87
2023/08/07 03:24:41;;;;;;;3.47;3.15;;;;;;;18.35;67.00;98747.38;6260695;22;20085;-87
2023/08/07 03:27:06;;;;;;;5.40;3.55;;;;;;;18.32;67.03;98733.63;6261546;22;19995;-87
2023/08/07 03:29:32;;;;;;;4.72;3.20;;;;;;;18.17;69.33;98740.50;6261096;22;20002;-86
2023/08/07 03:31:57;;;;;;;5.00;3.30;;;;;;;18.25;69.02;98745.06;6262959;22;20010;-87
2023/08/07 03:34:23;;;;;;;3.70;3.33;;;;;;;18.26;67.95;98748.59;6263299;22;20006;-87
2023/08/07 03:36:48;;;;;;;5.68;3.20;;;;;;;18.37;68.13;98766.13;6263273;22;20434;-87
2023/08/07 03:39:14;;;;;;;3.90;3.22;;;;;;;18.12;68.48;98740.72;6289101;22;19999;-87
2023/08/07 03:41:49;;;;;;;4.57;3.28;;;;;;;18.16;69.06;98756.06;6289500;22;19994;-87
2023/08/07 03:44:14;;;;;;;4.63;3.20;;;;;;;18.44;68.45;98760.13;6263477;22;20003;-88
2023/08/07 03:46:39;;;;;;;3.70;2.72;;;;;;;18.45;66.27;98754.34;6264224;22;20429;-88
2023/08/07 03:49:06;;;;;;;46.60;7.20;;;;;;;18.47;67.11;98749.38;6264896;22;19998;-88
2023/08/07 03:51:32;;;;;;;22.75;4.50;;;;;;;18.50;65.69;98756.06;6289661;22;20002;-87
2023/08/07 03:53:57;;;;;;;7.13;3.15;;;;;;;18.73;66.25;98757.25;6264247;22;20001;-89
2023/08/07 03:56:23;;;;;;;5.82;3.22;;;;;;;18.63;66.31;98748.72;6263996;22;20413;-90
2023/08/07 03:58:49;;;;;;;3.83;2.78;;;;;;;18.69;66.02;98753.59;6263523;22;20003;-90
2023/08/07 04:01:15;;;;;;;3.97;3.58;;;;;;;18.83;65.37;98747.09;6265042;22;20006;-90
2023/08/07 04:03:41;;;;;;;6.22;4.43;;;;;;;19.00;64.26;98752.31;6264172;22;20010;-90
2023/08/07 04:06:06;;;;;;;4.70;3.13;;;;;;;19.03;64.43;98770.75;6291225;22;20088;-91
2023/08/07 04:08:32;;;;;;;3.75;3.15;;;;;;;18.97;63.47;98763.94;6263842;22;20447;-89
2023/08/07 04:10:59;;;;;;;5.07;2.92;;;;;;;19.01;63.89;98767.56;6265205;22;19995;-89
2023/08/07 04:13:25;;;;;;;4.68;2.65;;;;;;;18.79;63.25;98746.97;6266670;22;20018;-91
2023/08/07 04:15:50;;;;;;;9.27;3.25;;;;;;;18.84;64.45;98771.28;6264172;22;20006;-90
2023/08/07 04:18:16;;;;;;;3.80;2.78;;;;;;;18.76;64.11;98762.03;6264874;22;20068;-91
2023/08/07 04:20:52;;;;;;;8.80;4.60;;;;;;;18.97;63.99;98786.53;6264563;22;19994;-92
2023/08/07 04:23:17;;;;;;;4.50;3.63;;;;;;;18.62;63.48;98764.28;6265706;22;20022;-90
2023/08/07 04:25:43;;;;;;;4.97;3.10;;;;;;;18.89;64.38;98779.25;6263688;22;20322;-89
2023/08/07 04:28:09;;;;;;;4.60;3.30;;;;;;;18.88;63.92;98780.38;6264960;22;20002;-88
2023/08/07 04:30:34;;;;;;;3.53;2.80;;;;;;;18.86;64.16;98771.75;6265365;22;20006;-91
2023/08/07 04:33:00;;;;;;;4.70;2.95;;;;;;;18.85;62.51;98778.34;6264556;22;19999;-89
2023/08/07 04:35:25;;;;;;;8.05;3.67;;;;;;;18.91;63.79;98779.72;6289421;22;19998;-88
2023/08/07 04:37:51;;;;;;;5.03;3.30;;;;;;;18.85;63.20;98772.09;6264107;22;20003;-87
2023/08/07 04:40:16;;;;;;;3.83;2.80;;;;;;;18.89;62.39;98776.53;6289067;22;20003;-88
2023/08/07 04:42:42;;;;;;;5.88;3.28;;;;;;;19.18;63.41;98800.09;6263407;22;20006;-88
2023/08/07 04:45:09;;;;;;;4.70;2.50;;;;;;;19.21;60.58;98790.44;6265485;22;19999;-88
2023/08/07 04:47:35;;;;;;;5.72;3.28;;;;;;;19.36;63.92;98806.16;6290147;22;20083;-90
2023/08/07 04:50:01;;;;;;;5.72;2.80;;;;;;;19.23;62.09;98777.25;6290271;22;20002;-90
2023/08/07 04:52:27;;;;;;;5.53;2.90;;;;;;;19.47;60.58;98802.97;6264826;22;19989;-91
2023/08/07 04:54:52;;;;;;;4.72;2.78;;;;;;;19.62;60.20;98796.00;6264951;22;20551;-89
2023/08/07 04:57:18;;;;;;;4.07;3.00;;;;;;;19.56;61.78;98798.16;6269235;22;20077;-89
2023/08/07 05:06:40;;;;;;;4.80;2.63;;;;;;;19.69;59.20;98799.75;6333255;22;20067;-90
2023/08/07 05:09:06;;;;;;;9.50;3.47;;;;;;;19.80;60.05;98800.13;6264716;22;20006;-90
2023/08/07 05:11:33;;;;;;;3.92;3.20;;;;;;;19.95;59.15;98804.88;6263518;22;20026;-91
2023/08/07 05:14:31;;;;;;;;;;;;;;;;;;;;;
2023/08/07 05:17:03;;;;;;;4.03;3.00;;;;;;;20.05;58.49;98800.06;6328857;22;20022;-96
2023/08/07 05:19:48;;;;;;;4.03;3.25;;;;;;;20.18;57.39;98829.75;6277893;22;20007;-96
2023/08/07 05:22:13;;;;;;;5.22;3.05;;;;;;;20.08;58.97;98802.91;6325494;22;20023;-95
2023/08/07 05:24:39;;;;;;;5.80;2.90;;;;;;;20.18;58.59;98832.47;6274431;22;20397;-96
2023/08/07 05:27:44;;;;;;;4.90;2.72;;;;;;;20.10;58.31;98816.22;6284926;22;19993;-96
2023/08/07 05:32:45;;;;;;;2.92;2.40;;;;;;;20.22;56.26;98815.41;6203716;22;20465;-96
2023/08/07 05:41:46;;;;;;;6.00;3.55;;;;;;;20.51;54.78;98803.31;6190983;22;20043;-96
2023/08/07 05:47:18;;;;;;;5.85;2.47;;;;;;;21.04;53.86;98842.28;6228899;22;20027;-95
2023/08/07 05:50:09;;;;;;;8.57;3.30;;;;;;;20.96;54.05;98819.44;6214532;23;20008;-95
2023/08/07 05:53:05;;;;;;;3.00;2.53;;;;;;;21.06;52.52;98825.50;6206698;23;20000;-96
2023/08/07 05:55:52;;;;;;;5.38;3.67;;;;;;;21.03;52.94;98821.53;6176271;23;20000;-96
2023/08/07 05:58:20;;;;;;;3.05;2.13;;;;;;;21.22;50.82;98833.75;6170586;23;20005;-94
2023/08/07 06:00:49;;;;;;;8.82;2.58;;;;;;;21.30;51.73;98838.25;6170848;23;19997;-94
2023/08/07 06:03:14;;;;;;;7.78;7.00;;;;;;;21.36;51.75;98839.59;6135860;23;20064;-86
2023/08/07 06:05:49;;;;;;;12.68;8.00;;;;;;;21.40;52.39;98835.78;6158774;23;20001;-89
2023/08/07 06:08:19;;;;;;;2.75;2.40;;;;;;;21.33;50.52;98840.28;6133073;23;20005;-89
2023/08/07 06:10:44;;;;;;;2.95;2.30;;;;;;;21.49;50.35;98843.06;6134008;23;20001;-88
2023/08/07 06:13:10;;;;;;;5.72;3.83;;;;;;;21.61;50.24;98842.16;6109837;23;20008;-89
2023/08/07 06:15:35;;;;;;;6.32;2.78;;;;;;;21.69;51.26;98828.28;6133158;23;20005;-89
2023/08/07 06:18:10;;;;;;;4.75;2.60;;;;;;;21.76;50.07;98824.91;6131709;23;20071;-88
2023/08/07 06:20:35;;;;;;;3.15;2.55;;;;;;;21.80;49.94;98817.56;6157780;23;20023;-88
2023/08/07 06:23:04;;;;;;;3.03;2.30;;;;;;;21.94;49.28;98837.06;6162670;23;20468;-87
2023/08/07 06:25:30;;;;;;;3.47;2.10;;;;;;;21.95;48.38;98835.91;6198336;23;20004;-87
2023/08/07 06:27:55;;;;;;;4.22;2.40;;;;;;;22.09;48.73;98840.13;6196324;23;20007;-90
2023/08/07 06:30:21;;;;;;;3.92;3.17;;;;;;;22.15;47.65;98844.16;6264973;22;20022;-85
2023/08/07 06:32:46;;;;;;;3.35;2.65;;;;;;;22.17;48.42;98839.13;6288887;22;19999;-89
2023/08/07 06:35:12;;;;;;;3.80;3.00;;;;;;;22.28;49.01;98851.13;6263240;22;20368;-89
2023/08/07 06:37:41;;;;;;;3.50;2.65;;;;;;;22.29;46.27;98860.97;6266944;22;20010;-89
2023/08/07 06:40:07;;;;;;;2.50;1.98;;;;;;;22.31;46.89;98842.19;6265260;22;20003;-88
2023/08/07 06:42:32;;;;;;;9.38;3.92;;;;;;;22.42;46.32;98828.69;6270598;22;20461;-87
2023/08/07 06:45:07;;;;;;;5.75;4.90;;;;;;;22.44;46.30;98823.66;6264920;22;20003;-87
2023/08/07 06:47:33;;;;;;;4.45;1.90;;;;;;;22.50;46.36;98833.19;6270212;22;19998;-86
2023/08/07 06:49:58;;;;;;;6.75;2.40;;;;;;;22.48;46.72;98829.22;6291830;22;19994;-87
2023/08/07 06:52:24;;;;;;;2.05;1.75;;;;;;;22.54;44.23;98838.75;6289660;22;20006;-92
2023/08/07 06:54:57;;;;;;;2.60;1.83;;;;;;;22.49;44.84;98836.28;6266172;22;20041;-91
2023/08/07 06:57:25;;;;;;;3.10;2.10;;;;;;;22.63;45.58;98847.53;6267525;22;20002;-92
2023/08/07 06:59:58;;;;;;;1.75;1.50;;;;;;;22.65;44.58;98845.22;6267699;22;20098;-89
2023/08/07 07:02:24;;;;;;;2.85;2.10;;;;;;;22.65;44.09;98834.25;6224930;23;20077;-87
2023/08/07 07:04:51;;;;;;;6.05;4.13;;;;;;;22.68;43.86;98825.31;6177995;23;20443;-87
2023/08/07 07:07:17;;;;;;;1.98;1.70;;;;;;;22.70;43.74;98844.13;6178753;23;20439;-90
2023/08/07 07:09:45;;;;;;;3.03;1.92;;;;;;;22.66;44.04;98846.81;6178178;23;20011;-91
2023/08/07 07:12:11;;;;;;;1.98;1.50;;;;;;;22.82;43.84;98854.94;6182541;23;20403;-88
2023/08/07 07:14:37;;;;;;;4.00;1.95;;;;;;;22.90;44.13;98862.16;6207268;23;20023;-88
2023/08/07 07:17:03;;;;;;;2.83;1.55;;;;;;;23.03;42.69;98860.06;6227112;23;20004;-91
2023/08/07 07:19:34;;;;;;;2.33;1.80;;;;;;;22.95;42.18;98848.16;6207756;23;20095;-91
2023/08/07 07:22:09;;;;;;;4.78;1.63;;;;;;;22.96;42.89;98851.69;6187472;23;19996;-92
2023/08/07 07:24:52;;;;;;;2.85;1.80;;;;;;;22.99;42.85;98843.53;6181881;23;20012;-90
2023/08/07 07:27:25;;;;;;;2.33;1.80;;;;;;;23.27;43.38;98872.69;6245118;22;19995;-92
2023/08/07 07:29:56;;;;;;;2.53;2.15;;;;;;;23.19;41.65;98858.00;6273093;22;20002;-93
2023/08/07 07:35:52;;;;;;;1.63;1.45;;;;;;;23.50;41.17;98885.63;6351604;22;20086;-94
2023/08/07 07:38:34;;;;;;;5.20;2.00;;;;;;;23.52;42.40;98875.06;6325828;22;20029;-94
2023/08/07 07:41:18;;;;;;;3.53;2.38;;;;;;;23.65;41.65;98862.69;6304678;22;20025;-93
2023/08/07 07:44:09;;;;;;;5.90;2.67;;;;;;;23.76;42.01;98849.09;6278603;22;20029;-95
2023/08/07 07:46:38;;;;;;;1.70;1.30;;;;;;;23.90;39.02;98870.56;6281358;22;20417;-90
2023/08/07 07:49:31;;;;;;;24.08;17.63;;;;;;;23.87;39.96;98861.13;6297248;22;19994;-94
2023/08/07 07:52:25;;;;;;;9.93;7.32;;;;;;;24.09;40.67;98875.16;6204004;23;20000;-96
2023/08/07 07:55:02;;;;;;;2.95;1.70;;;;;;;24.03;39.64;98868.41;6195430;23;20083;-92
2023/08/07 08:01:32;;;;;;;5.20;1.70;;;;;;;24.15;40.12;98890.19;6193265;23;20151;-91
2023/08/07 08:04:03;;;;;;;3.70;2.10;;;;;;;24.25;39.27;98886.78;6166870;23;20005;-94
2023/08/07 08:06:31;;;;;;;84.00;60.42;;;;;;;24.02;38.48;98859.34;6117564;23;20000;-91
2023/08/07 08:09:33;;;;;;;15.52;13.05;;;;;;;24.12;38.62;98896.44;6117040;23;20005;-92
2023/08/07 08:12:28;;;;;;;2.28;1.15;;;;;;;23.95;38.57;98897.78;6169101;23;20001;-93
2023/08/07 08:14:57;;;;;;;2.55;1.00;;;;;;;23.58;38.62;98871.63;6167826;23;20032;-91
2023/08/07 08:17:35;;;;;;;2.72;2.13;;;;;;;23.72;40.18;98867.50;6192034;23;20009;-91
2023/08/07 08:20:46;;;;;;;2.72;1.20;;;;;;;23.99;38.58;98871.13;6169946;23;20536;-92
2023/08/07 08:23:44;;;;;;;;;;;;;;;;;;;;;
2023/08/07 08:26:10;;;;;;;1.55;1.20;;;;;;;24.12;38.50;98883.47;6214145;23;20275;-91
2023/08/07 08:28:42;;;;;;;11.43;7.53;;;;;;;24.32;38.72;98878.66;6200670;23;20039;-93
2023/08/07 08:38:45;;;;;;;1.88;1.50;;;;;;;24.58;37.42;98852.25;6346475;22;20021;-93
2023/08/07 10:09:03;;;;;;;;;;;;;;;;;;;;;
2023/08/07 10:33:24;;;;;;;0.90;0.63;;;;;;;26.04;32.03;98851.22;6341889;22;20025;-95
2023/08/07 10:44:50;;;;;;;1.65;0.70;;;;;;;26.18;30.37;98830.00;6304651;22;20022;-95
2023/08/07 10:47:47;;;;;;;1.67;0.90;;;;;;;26.50;31.70;98854.22;6308544;22;20026;-96
2023/08/07 10:50:18;;;;;;;1.58;0.98;;;;;;;26.47;32.11;98835.66;6307997;22;20013;-95
2023/08/07 10:53:03;;;;;;;;;;;;;;;;;;;;;
2023/08/07 10:55:51;;;;;;;4.18;1.60;;;;;;;26.73;31.92;98839.31;6332831;22;19995;-96
2023/08/07 10:58:31;;;;;;;1.30;0.88;;;;;;;26.75;31.04;98831.44;6279980;22;20011;-95
2023/08/07 11:01:29;;;;;;;3.53;1.67;;;;;;;26.51;31.49;98855.78;6278496;22;19998;-96
2023/08/07 11:04:42;;;;;;;1.70;0.90;;;;;;;26.43;31.44;98826.56;6356043;22;20006;-93
2023/08/07 11:07:37;;;;;;;2.30;1.20;;;;;;;26.81;30.24;98855.53;6209012;23;20088;-96
2023/08/07 11:12:44;;;;;;;1.17;0.98;;;;;;;26.76;30.35;98828.28;6350684;22;20002;-95
2023/08/07 11:15:27;;;;;;;1.50;0.80;;;;;;;26.75;31.21;98806.56;6280916;22;20014;-96
2023/08/07 11:17:54;;;;;;;1.50;0.85;;;;;;;26.95;31.02;98820.81;6330781;22;20017;-96
2023/08/07 11:23:05;;;;;;;1.55;0.80;;;;;;;26.89;30.56;98809.34;6332529;22;20494;-95
2023/08/07 11:25:32;;;;;;;2.15;1.73;;;;;;;26.84;30.92;98820.03;6326971;22;20026;-92
2023/08/07 11:28:00;;;;;;;1.00;0.60;;;;;;;26.83;30.61;98829.47;6274409;22;19997;-95
2023/08/07 11:38:05;;;;;;;2.63;0.82;;;;;;;27.16;30.30;98834.66;6228815;23;20084;-95
2023/08/07 11:40:42;;;;;;;1.42;1.00;;;;;;;27.16;30.51;98815.31;6204798;23;20008;-96
2023/08/07 11:43:25;;;;;;;;;;;;;;;;;;;;;
2023/08/07 11:46:03;;;;;;;1.05;0.73;;;;;;;27.09;30.39;98815.31;6211658;23;20020;-94
2023/08/07 11:49:17;;;;;;;2.05;0.75;;;;;;;26.97;30.50;98810.16;6203661;22;20330;-85
2023/08/07 11:51:43;;;;;;;4.55;2.67;;;;;;;27.09;30.04;98831.91;6344544;22;20002;-87
2023/08/07 11:54:14;;;;;;;0.90;0.80;;;;;;;26.90;30.85;98801.88;6267312;22;20011;-88
2023/08/07 11:56:48;;;;;;;2.50;1.93;;;;;;;27.17;31.16;98827.19;6197798;23;20024;-90
2023/08/07 11:59:45;;;;;;;1.10;0.80;;;;;;;27.18;29.39;98812.94;6176697;23;20414;-91
2023/08/07 12:02:17;;;;;;;1.02;0.93;;;;;;;27.13;29.64;98813.34;6222701;23;20079;-89
2023/08/07 12:08:00;;;;;;;1.35;0.90;;;;;;;27.05;29.35;98800.72;6225992;23;20081;-88
2023/08/07 12:11:20;;;;;;;2.55;2.08;;;;;;;26.81;29.79;98782.91;6221423;23;19997;-86
2023/08/07 12:13:50;;;;;;;1.42;1.00;;;;;;;27.09;30.02;98792.44;6178049;23;20058;-95
2023/08/07 12:16:26;;;;;;;1.10;0.80;;;;;;;27.24;29.90;98807.06;6210231;23;20083;-95
2023/08/07 12:18:53;;;;;;;1.88;0.80;;;;;;;27.07;28.45;98795.56;6237295;22;20051;-96
2023/08/07 12:21:23;;;;;;;0.90;0.70;;;;;;;27.18;29.12;98804.66;6206422;23;20004;-96
2023/08/07 12:23:54;;;;;;;1.20;0.73;;;;;;;27.12;29.14;98783.34;6209295;23;20039;-94
2023/08/07 12:28:55;;;;;;;3.63;1.00;;;;;;;27.40;30.23;98804.69;6324082;22;20034;-96
2023/08/07 12:31:29;;;;;;;2.75;1.60;;;;;;;27.55;29.31;98819.31;6275660;22;20007;-95
2023/08/07 12:33:55;;;;;;;3.00;1.20;;;;;;;27.67;30.20;98815.34;6277637;22;20098;-95
2023/08/07 12:36:20;;;;;;;4.97;1.08;;;;;;;27.61;29.03;98815.72;6274932;22;19999;-94
2023/08/07 12:38:55;;;;;;;3.90;0.93;;;;;;;27.66;28.76;98813.75;6279061;22;20003;-94
2023/08/07 12:41:21;;;;;;;1.77;0.90;;;;;;;27.80;29.27;98803.44;6278108;22;20347;-96
2023/08/07 12:43:56;;;;;;;1.05;0.70;;;;;;;27.71;28.22;98805.84;6282215;22;19999;-96
2023/08/07 12:46:23;;;;;;;0.80;0.73;;;;;;;27.57;28.21;98806.66;6309404;22;20015;-96
2023/08/07 12:48:49;;;;;;;0.75;0.60;;;;;;;27.57;28.54;98820.47;6277187;22;20010;-94
2023/08/07 12:51:26;;;;;;;1.52;0.70;;;;;;;27.67;28.71;98807.03;6277325;22;20103;-95
2023/08/07 12:53:55;;;;;;;2.15;1.23;;;;;;;27.68;27.83;98805.84;6284721;22;20006;-95
2023/08/07 12:56:32;;;;;;;1.15;0.80;;;;;;;27.61;27.54;98801.91;6313186;22;20037;-96
2023/08/07 12:58:58;;;;;;;1.45;0.70;;;;;;;27.61;27.45;98810.19;6278275;22;19999;-94
2023/08/07 13:01:25;;;;;;;1.20;0.65;;;;;;;27.79;27.15;98810.19;6304004;22;20022;-95
2023/08/07 13:03:54;;;;;;;0.50;0.43;;;;;;;27.79;27.12;98807.41;6301068;22;20032;-96
2023/08/07 13:06:19;;;;;;;0.55;0.45;;;;;;;27.72;27.26;98792.78;6283295;22;20010;-96
2023/08/07 13:08:48;;;;;;;2.85;0.50;;;;;;;27.92;27.59;98807.81;6303509;22;20010;-96
2023/08/07 13:11:20;;;;;;;2.40;1.52;;;;;;;28.04;27.00;98803.81;6282097;22;20093;-95
2023/08/07 13:13:50;;;;;;;1.60;0.63;;;;;;;28.09;27.11;98797.84;6304815;22;19999;-96
2023/08/07 13:16:16;;;;;;;1.30;0.90;;;;;;;27.97;27.74;98785.28;6303073;22;20002;-94
2023/08/07 13:18:42;;;;;;;0.77;0.63;;;;;;;27.99;27.51;98780.13;6271774;22;19999;-94
2023/08/07 13:21:08;;;;;;;1.45;0.73;;;;;;;28.29;28.40;98802.94;6274417;22;19998;-95
2023/08/07 13:27:17;;;;;;;0.70;0.50;;;;;;;28.27;26.80;98786.72;6357269;22;19994;-96
2023/08/07 13:30:24;;;;;;;0.75;0.40;;;;;;;28.14;26.69;98782.81;6326413;22;20387;-95
2023/08/07 13:32:52;;;;;;;1.33;0.50;;;;;;;28.25;26.39;98783.56;6323115;22;19999;-96
2023/08/07 13:35:37;;;;;;;;;;;;;;;;;;;;;
2023/08/07 13:38:12;;;;;;;0.90;0.52;;;;;;;28.35;26.32;98784.72;6307089;22;20022;-95
2023/08/07 13:40:39;;;;;;;0.80;0.60;;;;;;;28.69;26.60;98773.09;6279300;22;19999;-95
2023/08/07 13:43:09;;;;;;;1.75;0.63;;;;;;;28.84;26.07;98796.72;6278164;22;20290;-92
2023/08/07 13:48:17;;;;;;;0.65;0.50;;;;;;;29.23;25.13;98789.34;6317354;22;20029;-95
2023/08/07 14:08:36;;;;;;;1.23;0.77;;;;;;;30.51;23.54;98770.53;6198172;22;20031;-95
2023/08/07 14:11:15;;;;;;;1.00;0.68;;;;;;;30.50;22.57;98762.63;6232742;23;20009;-96
2023/08/07 14:16:25;;;;;;;1.13;0.57;;;;;;;30.93;22.39;98770.38;6345758;22;20023;-96
2023/08/07 14:32:00;;;;;;;0.85;0.50;;;;;;;32.61;21.31;98772.81;6350273;22;20025;-91
2023/08/07 14:34:29;;;;;;;1.88;0.90;;;;;;;32.86;20.37;98767.88;6266668;22;20094;-91
2023/08/07 14:37:29;;;;;;;1.15;0.63;;;;;;;33.11;20.18;98779.22;6270211;22;20086;-92
2023/08/07 14:39:59;;;;;;;1.80;0.50;;;;;;;33.24;20.25;98764.56;6320471;22;20006;-90
2023/08/07 14:46:01;;;;;;;;;;;;;;;;;;;;;
2023/08/07 14:54:58;;;;;;;0.85;0.70;;;;;;;33.46;18.99;98771.19;6310483;22;20026;-86
2023/08/07 14:57:24;;;;;;;1.02;0.88;;;;;;;33.44;19.22;98756.09;6262020;22;20015;-85
2023/08/07 14:59:56;;;;;;;2.20;0.70;;;;;;;33.58;19.42;98770.47;6261865;22;20059;-87
2023/08/07 15:02:27;;;;;;;1.55;0.60;;;;;;;34.06;18.81;98767.97;6263510;22;20150;-87
2023/08/07 15:05:08;;;;;;;0.82;0.57;;;;;;;34.19;18.85;98762.44;6261742;22;20018;-87
2023/08/07 15:07:36;;;;;;;2.08;0.65;;;;;;;33.81;19.50;98754.72;6316237;22;19999;-88
2023/08/07 15:10:11;;;;;;;1.90;0.70;;;;;;;34.65;18.22;98776.28;6263068;22;20007;-88
2023/08/07 15:12:46;;;;;;;2.80;0.80;;;;;;;35.45;17.62;98762.06;6264778;22;20412;-88
2023/08/07 15:15:15;;;;;;;1.70;0.75;;;;;;;35.72;17.10;98757.97;6290067;22;20341;-88
2023/08/07 15:24:50;;;;;;;3.58;1.10;;;;;;;33.60;18.82;98776.41;6352968;22;20028;-95
2023/08/07 15:28:20;;;;;;;1.23;0.70;;;;;;;32.93;19.39;98740.56;6262873;23;20035;-96
2023/08/07 15:30:56;;;;;;;1.85;0.93;;;;;;;32.69;19.74;98756.69;6245953;23;20016;-95
2023/08/07 15:33:48;;;;;;;1.45;0.85;;;;;;;31.78;20.35;98768.09;6215523;23;20081;-96
2023/08/07 15:36:16;;;;;;;1.42;0.68;;;;;;;31.03;20.73;98749.94;6238148;22;20009;-95
2023/08/07 15:38:56;;;;;;;2.63;0.85;;;;;;;30.62;21.79;98762.06;6213045;23;20013;-96
2023/08/07 15:41:25;;;;;;;1.63;0.80;;;;;;;30.52;22.26;98749.88;6184591;23;20009;-96
2023/08/07 15:44:17;;;;;;;1.30;0.80;;;;;;;30.19;23.43;98751.50;6181465;23;20008;-96
2023/08/07 15:50:05;;;;;;;1.83;1.00;;;;;;;29.38;24.07;98758.28;6232788;23;20133;-95
2023/08/07 15:53:01;;;;;;;1.80;0.95;;;;;;;29.06;24.79;98757.78;6230926;22;19999;-96
2023/08/07 16:04:58;;;;;;;;;;;;;;;;;;;;;